Time;durP1;ratioP1;P1;durP2;ratioP2;P2;SDS_P1;SDS_P2;PMS_P1;PMS_P2;Temp;Humidity;BMP_temperature;BMP_pressure;BME280_temperature;BME280_humidity;BME280_pressure;Samples;Min_cycle;Max_cycle;Signal;HPM_P1;HPM_P2
2024/02/23 00:02:17;;;;;;;0.60;0.50;;;11.10;60.70;;;;;;5006539;28;20429;-56
2024/02/23 00:04:42;;;;;;;2.47;0.70;;;11.10;60.20;;;;;;5008185;28;20178;-58
2024/02/23 00:07:08;;;;;;;0.60;0.60;;;10.80;59.80;;;;;;5005801;28;20228;-59
2024/02/23 00:09:34;;;;;;;0.50;0.50;;;10.80;60.50;;;;;;5009759;28;20185;-58
2024/02/23 00:11:59;;;;;;;1.10;0.60;;;11.10;60.90;;;;;;5015769;28;20253;-59
2024/02/23 00:14:25;;;;;;;1.77;0.70;;;10.90;59.40;;;;;;5012694;28;20232;-57
2024/02/23 00:16:51;;;;;;;1.57;0.60;;;10.90;59.80;;;;;;5012163;28;20544;-57
2024/02/23 00:19:18;;;;;;;0.60;0.60;;;10.80;59.90;;;;;;5015534;28;20178;-61
2024/02/23 00:21:47;;;;;;;2.03;0.60;;;10.60;59.60;;;;;;5011480;28;20190;-58
2024/02/23 00:24:13;;;;;;;2.30;0.73;;;10.80;60.40;;;;;;5014948;28;20445;-59
2024/02/23 00:26:38;;;;;;;0.50;0.50;;;10.80;59.70;;;;;;5010903;28;20907;-58
2024/02/23 00:29:04;;;;;;;1.57;0.70;;;11.00;60.10;;;;;;5014600;28;20185;-56
2024/02/23 00:31:30;;;;;;;0.60;0.60;;;11.00;59.30;;;;;;5013252;28;20204;-55
2024/02/23 00:33:55;;;;;;;0.70;0.60;;;11.00;59.50;;;;;;5014593;28;20190;-57
2024/02/23 00:36:21;;;;;;;0.70;0.60;;;11.00;59.30;;;;;;5011334;28;20272;-55
2024/02/23 00:38:46;;;;;;;1.33;0.70;;;11.10;59.70;;;;;;5009844;28;20918;-58
2024/02/23 00:41:12;;;;;;;0.60;0.60;;;11.20;59.50;;;;;;5007511;28;20186;-57
2024/02/23 00:43:41;;;;;;;0.90;0.70;;;11.00;58.70;;;;;;5007016;28;20244;-56
2024/02/23 00:46:07;;;;;;;1.90;0.60;;;10.80;59.10;;;;;;5007207;28;20621;-58
2024/02/23 00:48:33;;;;;;;0.97;0.60;;;10.60;59.70;;;;;;5008959;28;20506;-60
2024/02/23 00:50:58;;;;;;;0.80;0.60;;;10.90;59.90;;;;;;5011692;28;20437;-59
2024/02/23 00:53:24;;;;;;;2.30;0.70;;;10.90;60.30;;;;;;5012316;28;20224;-60
2024/02/23 00:55:49;;;;;;;2.83;1.20;;;10.90;59.90;;;;;;5007351;28;20190;-59
2024/02/23 00:58:15;;;;;;;0.60;0.60;;;11.10;59.90;;;;;;5007266;28;20836;-59
2024/02/23 01:00:41;;;;;;;2.60;0.60;;;11.10;59.20;;;;;;5007150;28;20191;-60
2024/02/23 01:03:07;;;;;;;0.60;0.60;;;11.20;58.90;;;;;;5008787;28;20408;-60
2024/02/23 01:05:32;;;;;;;3.27;0.67;;;11.10;58.70;;;;;;5011939;28;20424;-62
2024/02/23 01:07:58;;;;;;;1.00;0.60;;;11.10;58.80;;;;;;5007191;28;20221;-60
2024/02/23 01:10:24;;;;;;;1.23;0.70;;;11.10;58.10;;;;;;5008981;28;20251;-59
2024/02/23 01:12:49;;;;;;;0.80;0.80;;;10.90;58.10;;;;;;5007561;28;20677;-59
2024/02/23 01:15:15;;;;;;;2.73;0.50;;;10.90;58.60;;;;;;5010582;28;20202;-58
2024/02/23 01:17:40;;;;;;;1.57;1.47;;;11.00;58.20;;;;;;5008565;28;20261;-59
2024/02/23 01:20:06;;;;;;;1.27;0.50;;;11.10;58.40;;;;;;5008581;28;20560;-61
2024/02/23 01:22:32;;;;;;;5.23;0.60;;;11.00;58.40;;;;;;5003439;28;20213;-58
2024/02/23 01:24:57;;;;;;;2.20;0.50;;;11.00;58.90;;;;;;5004731;28;20944;-60
2024/02/23 01:27:23;;;;;;;1.00;0.63;;;11.00;58.90;;;;;;5002308;28;20260;-59
2024/02/23 01:29:49;;;;;;;1.10;0.60;;;11.00;58.40;;;;;;5004496;28;20186;-60
2024/02/23 01:32:14;;;;;;;1.23;0.50;;;11.00;58.60;;;;;;5007065;28;20193;-56
2024/02/23 01:34:40;;;;;;;1.33;0.60;;;11.30;58.70;;;;;;5006148;28;20213;-56
2024/02/23 01:37:05;;;;;;;1.80;0.70;;;11.30;58.20;;;;;;5003130;28;20217;-61
2024/02/23 01:39:31;;;;;;;0.90;0.80;;;11.30;58.30;;;;;;5004343;28;20252;-60
2024/02/23 01:41:57;;;;;;;0.97;0.67;;;11.30;58.40;;;;;;5002027;28;20232;-59
2024/02/23 01:44:22;;;;;;;2.40;1.00;;;11.50;58.30;;;;;;5005840;28;20269;-58
2024/02/23 01:46:49;;;;;;;2.00;0.63;;;11.50;58.20;;;;;;5005144;28;20257;-58
2024/02/23 01:49:14;;;;;;;0.70;0.50;;;11.40;58.20;;;;;;5011175;28;20182;-58
2024/02/23 01:51:40;;;;;;;1.43;0.50;;;11.50;58.50;;;;;;5010808;28;20429;-57
2024/02/23 01:54:06;;;;;;;2.20;0.77;;;11.50;58.40;;;;;;5010530;28;20190;-58
2024/02/23 01:56:33;;;;;;;1.43;0.60;;;11.60;58.40;;;;;;5005239;28;20276;-62
2024/02/23 01:59:00;;;;;;;3.43;1.40;;;11.50;58.50;;;;;;5010223;28;20217;-60
2024/02/23 02:01:25;;;;;;;1.47;0.70;;;11.60;58.00;;;;;;5004559;28;20449;-57
2024/02/23 02:03:51;;;;;;;0.97;0.50;;;11.50;58.10;;;;;;5008578;28;20451;-59
2024/02/23 02:06:17;;;;;;;1.27;0.60;;;11.30;58.00;;;;;;5009037;28;21330;-56
2024/02/23 02:08:43;;;;;;;1.47;0.60;;;11.30;58.70;;;;;;5009369;28;20566;-60
2024/02/23 02:11:09;;;;;;;3.07;0.70;;;11.50;59.10;;;;;;5009923;28;20181;-59
2024/02/23 02:13:35;;;;;;;4.77;1.20;;;11.60;58.40;;;;;;5004426;28;20265;-57
2024/02/23 02:16:02;;;;;;;1.03;0.70;;;11.70;58.50;;;;;;5009262;28;21039;-59
2024/02/23 02:18:28;;;;;;;2.00;0.70;;;11.90;58.40;;;;;;5008108;28;20248;-61
2024/02/23 02:20:57;;;;;;;1.37;0.60;;;11.80;57.80;;;;;;5007478;28;20968;-58
2024/02/23 02:23:23;;;;;;;0.70;0.60;;;11.60;57.70;;;;;;5008413;28;20430;-59
2024/02/23 02:25:55;;;;;;;0.70;0.70;;;11.70;58.00;;;;;;5003077;28;20527;-57
2024/02/23 02:28:22;;;;;;;1.00;0.80;;;11.80;58.00;;;;;;5001311;28;20445;-55
2024/02/23 02:30:48;;;;;;;1.13;0.57;;;12.00;58.30;;;;;;5002201;28;21355;-59
2024/02/23 02:33:13;;;;;;;1.40;0.70;;;11.80;58.40;;;;;;5002501;28;20436;-60
2024/02/23 02:35:39;;;;;;;1.93;0.70;;;11.80;58.70;;;;;;5002441;28;20459;-60
2024/02/23 02:38:04;;;;;;;1.27;0.50;;;11.90;59.20;;;;;;5003341;28;20178;-61
2024/02/23 02:40:31;;;;;;;1.00;0.50;;;11.80;59.70;;;;;;5003295;28;20244;-62
2024/02/23 02:42:57;;;;;;;0.63;0.50;;;11.70;60.20;;;;;;5001860;28;20193;-60
2024/02/23 02:45:23;;;;;;;0.87;0.50;;;11.80;60.40;;;;;;5007909;28;20429;-60
2024/02/23 02:47:48;;;;;;;0.90;0.57;;;11.80;60.10;;;;;;5001312;28;20221;-60
2024/02/23 02:50:14;;;;;;;0.60;0.60;;;11.80;60.10;;;;;;5003447;28;20190;-58
2024/02/23 02:52:39;;;;;;;0.87;0.60;;;11.50;60.30;;;;;;5004888;28;20281;-59
2024/02/23 02:55:05;;;;;;;0.70;0.60;;;11.50;59.80;;;;;;5008463;28;20661;-60
2024/02/23 02:57:31;;;;;;;1.33;0.70;;;11.10;59.80;;;;;;5008529;28;20206;-58
2024/02/23 02:59:56;;;;;;;1.00;0.60;;;10.90;61.50;;;;;;5010467;28;20186;-60
2024/02/23 03:02:22;;;;;;;2.93;1.20;;;10.90;61.20;;;;;;5004276;28;20186;-60
2024/02/23 03:04:49;;;;;;;0.80;0.80;;;11.00;61.60;;;;;;5002657;28;22276;-60
2024/02/23 03:07:15;;;;;;;1.90;0.57;;;11.10;60.80;;;;;;5001521;28;20308;-58
2024/02/23 03:09:40;;;;;;;1.50;0.73;;;11.00;61.30;;;;;;5002844;28;21527;-59
2024/02/23 03:12:06;;;;;;;2.60;0.80;;;11.00;61.20;;;;;;5001624;28;20763;-59
2024/02/23 03:14:33;;;;;;;0.83;0.80;;;10.90;61.40;;;;;;5001786;28;20198;-59
2024/02/23 03:16:59;;;;;;;1.20;0.70;;;11.00;61.40;;;;;;5001252;28;20209;-61
2024/02/23 03:19:25;;;;;;;3.73;0.70;;;10.90;61.60;;;;;;5003943;28;20520;-60
2024/02/23 03:21:51;;;;;;;1.20;0.70;;;11.00;61.20;;;;;;5003535;28;20190;-58
2024/02/23 03:24:17;;;;;;;1.13;0.80;;;10.80;61.30;;;;;;5008252;28;20448;-60
2024/02/23 03:26:42;;;;;;;0.80;0.80;;;10.90;61.80;;;;;;5001405;28;20221;-61
2024/02/23 03:29:09;;;;;;;2.63;0.60;;;10.90;61.30;;;;;;5001958;28;20715;-55
2024/02/23 03:31:34;;;;;;;1.93;0.80;;;11.00;61.20;;;;;;5003224;28;20178;-58
2024/02/23 03:34:00;;;;;;;1.43;0.80;;;11.20;61.20;;;;;;5002021;28;20498;-56
2024/02/23 03:36:26;;;;;;;1.23;0.70;;;11.20;59.40;;;;;;4999413;28;20206;-56
2024/02/23 03:38:52;;;;;;;1.07;0.60;;;11.00;58.80;;;;;;5001595;28;20756;-56
2024/02/23 03:41:18;;;;;;;2.90;1.00;;;10.90;59.00;;;;;;5001255;28;20542;-58
2024/02/23 03:43:43;;;;;;;1.73;0.80;;;10.70;58.70;;;;;;5001462;28;20437;-58
2024/02/23 03:46:09;;;;;;;1.10;1.00;;;10.60;57.20;;;;;;5004446;28;20244;-56
2024/02/23 03:48:35;;;;;;;1.43;0.80;;;10.50;57.30;;;;;;5007362;28;20272;-55
2024/02/23 03:51:03;;;;;;;2.10;1.20;;;10.40;56.90;;;;;;5005187;28;20733;-59
2024/02/23 03:53:29;;;;;;;5.00;1.30;;;10.40;57.00;;;;;;5007064;28;20487;-60
2024/02/23 03:55:54;;;;;;;4.50;1.40;;;10.40;56.80;;;;;;5003720;28;20469;-57
2024/02/23 03:58:20;;;;;;;2.50;1.50;;;10.70;56.50;;;;;;5008132;28;20190;-55
2024/02/23 04:00:45;;;;;;;3.93;1.73;;;10.90;55.90;;;;;;5006247;28;20206;-57
2024/02/23 04:03:11;;;;;;;2.70;1.63;;;10.80;54.90;;;;;;5006565;28;20181;-56
2024/02/23 04:05:36;;;;;;;5.80;1.20;;;11.00;55.20;;;;;;5007649;28;20186;-55
2024/02/23 04:08:02;;;;;;;2.10;0.80;;;11.30;55.20;;;;;;5008267;28;20589;-57
2024/02/23 04:10:28;;;;;;;2.70;1.73;;;11.50;54.80;;;;;;5008455;28;20197;-59
2024/02/23 04:12:54;;;;;;;1.60;1.00;;;11.30;54.30;;;;;;5008057;28;21027;-55
2024/02/23 04:15:19;;;;;;;2.20;0.90;;;11.50;54.30;;;;;;5006749;28;20361;-58
2024/02/23 04:17:46;;;;;;;3.07;0.93;;;11.60;54.10;;;;;;5005950;28;20228;-58
2024/02/23 04:20:11;;;;;;;4.03;0.80;;;11.60;53.50;;;;;;5008478;28;20218;-59
2024/02/23 04:22:38;;;;;;;2.37;1.00;;;11.40;53.10;;;;;;5005335;28;20452;-55
2024/02/23 04:25:04;;;;;;;3.90;1.03;;;11.30;53.40;;;;;;5007742;28;20213;-56
2024/02/23 04:27:30;;;;;;;1.20;0.90;;;11.50;53.40;;;;;;5007743;28;20844;-55
2024/02/23 04:29:56;;;;;;;4.57;1.47;;;11.70;53.00;;;;;;5003303;28;20469;-57
2024/02/23 04:32:21;;;;;;;1.00;0.70;;;11.70;52.40;;;;;;5008627;28;20201;-60
2024/02/23 04:34:47;;;;;;;1.37;0.80;;;11.70;52.20;;;;;;5004674;28;20743;-55
2024/02/23 04:37:12;;;;;;;3.13;0.90;;;11.70;51.90;;;;;;5005777;28;20677;-56
2024/02/23 04:39:41;;;;;;;1.93;0.90;;;11.80;51.70;;;;;;5004576;28;20253;-60
2024/02/23 04:42:08;;;;;;;2.00;0.70;;;11.90;51.60;;;;;;5000765;28;20581;-58
2024/02/23 04:44:34;;;;;;;1.30;0.83;;;11.90;51.60;;;;;;5000798;28;21143;-59
2024/02/23 04:47:00;;;;;;;0.80;0.80;;;11.80;51.50;;;;;;4999358;28;20485;-57
2024/02/23 04:49:25;;;;;;;1.17;0.87;;;11.80;51.50;;;;;;5001184;28;20441;-55
2024/02/23 04:51:51;;;;;;;1.20;0.87;;;11.70;51.20;;;;;;5006753;28;20610;-59
2024/02/23 04:54:16;;;;;;;3.37;1.57;;;11.70;51.10;;;;;;5012054;28;20189;-57
2024/02/23 04:56:42;;;;;;;6.00;1.50;;;11.80;51.10;;;;;;5012407;28;20578;-57
2024/02/23 04:59:08;;;;;;;4.57;1.20;;;11.70;50.60;;;;;;5006582;28;20200;-58
2024/02/23 05:01:37;;;;;;;2.13;1.10;;;11.80;51.10;;;;;;5006043;28;20827;-57
2024/02/23 05:04:03;;;;;;;2.00;0.93;;;11.80;50.60;;;;;;5003117;28;20562;-57
2024/02/23 05:06:29;;;;;;;3.27;1.50;;;11.80;50.70;;;;;;5004771;28;20476;-58
2024/02/23 05:08:55;;;;;;;3.90;2.40;;;11.80;50.70;;;;;;5007397;28;20990;-57
2024/02/23 05:11:21;;;;;;;2.97;1.60;;;11.90;50.70;;;;;;5011389;28;20420;-56
2024/02/23 05:13:47;;;;;;;5.33;1.50;;;11.80;50.40;;;;;;5005128;28;20201;-59
2024/02/23 05:16:14;;;;;;;2.20;0.90;;;11.70;50.40;;;;;;5005482;28;20639;-59
2024/02/23 05:18:41;;;;;;;0.80;0.77;;;11.70;50.00;;;;;;5004949;28;20452;-55
2024/02/23 05:21:08;;;;;;;2.90;1.20;;;11.50;50.00;;;;;;5005083;28;20566;-56
2024/02/23 05:23:33;;;;;;;2.43;1.00;;;11.70;50.50;;;;;;5002174;28;20461;-60
2024/02/23 05:25:59;;;;;;;2.30;0.93;;;11.80;50.50;;;;;;5003468;28;21072;-57
2024/02/23 05:28:24;;;;;;;2.47;0.80;;;11.80;50.40;;;;;;5003709;28;20276;-59
2024/02/23 05:30:51;;;;;;;4.87;1.20;;;11.90;50.30;;;;;;5004153;28;20451;-56
2024/02/23 05:33:20;;;;;;;2.20;0.90;;;11.90;50.40;;;;;;5004105;28;20644;-57
2024/02/23 05:35:48;;;;;;;3.43;1.00;;;11.90;50.30;;;;;;5004152;28;20594;-59
2024/02/23 05:38:16;;;;;;;1.43;1.10;;;11.80;50.30;;;;;;5002721;28;20498;-59
2024/02/23 05:40:42;;;;;;;1.47;0.90;;;11.90;49.90;;;;;;5003497;28;20445;-56
2024/02/23 05:43:08;;;;;;;1.63;0.90;;;11.80;49.80;;;;;;5003138;28;21233;-55
2024/02/23 05:45:34;;;;;;;1.90;1.00;;;11.80;50.00;;;;;;5007833;28;20447;-56
2024/02/23 05:48:00;;;;;;;2.70;1.00;;;11.80;50.40;;;;;;5007295;28;20245;-58
2024/02/23 05:50:25;;;;;;;2.17;1.97;;;11.80;50.50;;;;;;5010388;28;20194;-59
2024/02/23 05:52:53;;;;;;;1.07;0.80;;;11.70;50.80;;;;;;5010544;28;20191;-58
2024/02/23 05:55:18;;;;;;;3.33;1.07;;;11.70;51.00;;;;;;5007362;28;20204;-59
2024/02/23 05:57:44;;;;;;;0.90;0.70;;;11.80;51.30;;;;;;5008692;28;20440;-57
2024/02/23 06:00:10;;;;;;;0.80;0.80;;;11.80;51.60;;;;;;5009878;28;20182;-59
2024/02/23 06:02:36;;;;;;;2.80;1.00;;;11.70;51.80;;;;;;5010753;28;20194;-60
2024/02/23 06:05:03;;;;;;;1.50;0.80;;;11.80;52.10;;;;;;5008402;28;20861;-61
2024/02/23 06:07:29;;;;;;;1.67;0.73;;;11.80;52.10;;;;;;5006648;28;20468;-58
2024/02/23 06:09:58;;;;;;;0.90;0.90;;;11.80;52.20;;;;;;5011149;28;20944;-57
2024/02/23 06:12:24;;;;;;;4.40;0.90;;;11.70;52.30;;;;;;5009872;28;20429;-55
2024/02/23 06:14:51;;;;;;;1.50;0.90;;;11.70;52.50;;;;;;5010690;28;20431;-58
2024/02/23 06:17:16;;;;;;;1.83;1.00;;;11.70;52.60;;;;;;5006503;28;20500;-56
2024/02/23 06:19:42;;;;;;;3.20;1.10;;;11.60;52.50;;;;;;5009906;28;20512;-55
2024/02/23 06:22:09;;;;;;;1.17;1.00;;;11.50;52.70;;;;;;5010116;28;20182;-57
2024/02/23 06:24:35;;;;;;;2.30;1.07;;;11.40;53.00;;;;;;5004113;28;20193;-58
2024/02/23 06:27:03;;;;;;;3.77;1.30;;;11.40;53.20;;;;;;5002835;28;20485;-56
2024/02/23 06:29:29;;;;;;;4.07;1.83;;;11.30;53.60;;;;;;5003888;28;20273;-55
2024/02/23 06:31:54;;;;;;;2.13;1.80;;;11.30;54.00;;;;;;5002457;28;20511;-56
2024/02/23 06:34:20;;;;;;;2.33;1.30;;;11.30;54.20;;;;;;5002361;28;20444;-57
2024/02/23 06:36:45;;;;;;;1.63;1.40;;;11.30;54.30;;;;;;5004943;28;20216;-58
2024/02/23 06:39:11;;;;;;;2.27;1.40;;;11.20;54.40;;;;;;5000618;28;20280;-55
2024/02/23 06:41:40;;;;;;;2.20;1.60;;;11.30;54.40;;;;;;5002425;28;20186;-57
2024/02/23 06:44:06;;;;;;;3.40;1.83;;;11.30;54.60;;;;;;5002353;28;21036;-59
2024/02/23 06:46:31;;;;;;;4.33;1.40;;;11.30;55.30;;;;;;5002387;28;20479;-55
2024/02/23 06:48:57;;;;;;;3.97;1.60;;;11.50;55.30;;;;;;5002753;28;20256;-56
2024/02/23 06:51:22;;;;;;;4.43;1.97;;;11.60;54.90;;;;;;5008862;28;20193;-55
2024/02/23 06:53:48;;;;;;;5.20;1.40;;;11.70;54.90;;;;;;5002718;28;20182;-58
2024/02/23 06:56:14;;;;;;;4.03;1.30;;;11.90;55.10;;;;;;5003579;28;20214;-60
2024/02/23 06:58:40;;;;;;;3.00;1.37;;;12.10;55.10;;;;;;5001649;28;20190;-60
2024/02/23 07:01:06;;;;;;;2.57;1.67;;;12.20;54.80;;;;;;5001402;28;20201;-60
2024/02/23 07:03:33;;;;;;;3.33;1.53;;;12.30;54.60;;;;;;5002357;28;20507;-60
2024/02/23 07:05:58;;;;;;;2.53;1.20;;;12.30;54.40;;;;;;5001351;28;20473;-59
2024/02/23 07:08:24;;;;;;;2.57;1.60;;;12.40;54.00;;;;;;5003175;28;20615;-61
2024/02/23 07:10:50;;;;;;;1.50;1.30;;;12.40;53.80;;;;;;5007085;28;20190;-59
2024/02/23 07:13:17;;;;;;;3.77;1.70;;;12.50;53.60;;;;;;5006750;28;20210;-57
2024/02/23 07:15:42;;;;;;;3.00;1.43;;;12.50;53.50;;;;;;5006480;28;20229;-60
2024/02/23 07:18:08;;;;;;;1.70;1.60;;;12.60;53.30;;;;;;5005036;28;21280;-59
2024/02/23 07:20:36;;;;;;;2.37;1.80;;;12.60;53.20;;;;;;5001823;28;20204;-56
2024/02/23 07:23:01;;;;;;;3.10;1.63;;;12.60;53.00;;;;;;5007168;28;20244;-58
2024/02/23 07:25:27;;;;;;;5.20;2.80;;;12.70;53.10;;;;;;5006997;28;20551;-59
2024/02/23 07:27:52;;;;;;;5.83;2.60;;;12.60;53.00;;;;;;5007243;28;20268;-58
2024/02/23 07:30:18;;;;;;;3.07;2.37;;;12.50;53.90;;;;;;5008168;28;20658;-58
2024/02/23 07:32:44;;;;;;;2.57;1.60;;;12.50;53.80;;;;;;5007691;28;20186;-61
2024/02/23 07:35:10;;;;;;;4.47;1.70;;;12.50;53.70;;;;;;5005507;28;20220;-57
2024/02/23 07:37:39;;;;;;;4.73;1.63;;;12.50;53.80;;;;;;4999364;28;20492;-56
2024/02/23 07:40:05;;;;;;;2.67;1.40;;;12.50;53.80;;;;;;5005572;28;20505;-56
2024/02/23 07:42:32;;;;;;;1.70;1.30;;;12.40;53.90;;;;;;5004302;28;20425;-56
2024/02/23 07:44:58;;;;;;;1.73;1.10;;;12.50;54.10;;;;;;5006956;28;20425;-59
2024/02/23 07:47:24;;;;;;;2.10;1.37;;;12.40;54.00;;;;;;5005416;28;20850;-58
2024/02/23 07:49:51;;;;;;;1.90;1.10;;;12.40;54.20;;;;;;5005873;28;20606;-59
2024/02/23 07:52:16;;;;;;;2.40;1.50;;;12.40;54.20;;;;;;5005685;28;20496;-59
2024/02/23 07:54:42;;;;;;;4.20;2.37;;;12.40;54.30;;;;;;5007352;28;20460;-56
2024/02/23 07:57:07;;;;;;;3.30;1.93;;;12.30;54.70;;;;;;5001878;28;20309;-60
2024/02/23 07:59:33;;;;;;;3.07;1.90;;;12.40;54.80;;;;;;5003119;28;20282;-59
2024/02/23 08:01:59;;;;;;;2.23;1.73;;;12.50;54.80;;;;;;5003443;28;20238;-60
2024/02/23 08:04:24;;;;;;;3.00;1.30;;;12.60;54.60;;;;;;5004604;28;20421;-57
2024/02/23 08:06:51;;;;;;;2.80;1.77;;;12.60;54.80;;;;;;5008087;28;20759;-60
2024/02/23 08:09:17;;;;;;;2.67;2.03;;;12.60;54.70;;;;;;5008735;28;20214;-60
2024/02/23 08:11:43;;;;;;;2.00;1.50;;;12.60;54.50;;;;;;5004766;28;20490;-59
2024/02/23 08:14:09;;;;;;;1.87;1.77;;;12.40;54.10;;;;;;5008172;28;20425;-58
2024/02/23 08:16:34;;;;;;;1.33;1.23;;;12.50;54.10;;;;;;5004059;28;20441;-56
2024/02/23 08:19:00;;;;;;;4.53;1.67;;;12.60;53.80;;;;;;5004918;28;20190;-56
2024/02/23 08:21:26;;;;;;;3.53;1.60;;;12.60;53.80;;;;;;5008036;28;20197;-59
2024/02/23 08:23:52;;;;;;;1.80;1.17;;;12.60;53.50;;;;;;5004106;28;20190;-58
2024/02/23 08:26:18;;;;;;;2.67;2.10;;;12.60;53.10;;;;;;5007720;28;20460;-58
2024/02/23 08:28:43;;;;;;;3.97;2.00;;;12.70;53.40;;;;;;5004719;28;20420;-58
2024/02/23 08:31:09;;;;;;;1.97;1.33;;;12.80;53.50;;;;;;5005129;28;20171;-59
2024/02/23 08:33:35;;;;;;;1.87;1.53;;;12.70;52.80;;;;;;5009970;28;20255;-56
2024/02/23 08:36:00;;;;;;;2.30;1.73;;;12.60;52.70;;;;;;5012159;28;20213;-56
2024/02/23 08:38:26;;;;;;;3.87;1.90;;;12.50;53.30;;;;;;5008188;28;20178;-56
2024/02/23 08:40:51;;;;;;;3.60;2.40;;;12.30;52.70;;;;;;5010898;28;20221;-59
2024/02/23 08:43:17;;;;;;;3.20;2.90;;;12.30;53.10;;;;;;5012308;28;20575;-58
2024/02/23 08:45:42;;;;;;;3.07;2.07;;;12.40;53.40;;;;;;5010120;28;20299;-58
2024/02/23 08:48:08;;;;;;;2.20;1.40;;;12.50;53.10;;;;;;5009398;28;20509;-57
2024/02/23 08:50:34;;;;;;;2.90;1.30;;;12.30;52.40;;;;;;5009426;28;20438;-57
2024/02/23 08:53:00;;;;;;;4.97;2.40;;;12.00;53.80;;;;;;5007051;28;20185;-58
2024/02/23 08:55:25;;;;;;;2.10;1.90;;;12.10;53.70;;;;;;5008514;28;20197;-59
2024/02/23 08:57:51;;;;;;;2.43;1.50;;;12.10;53.60;;;;;;5007884;28;20217;-58
2024/02/23 09:00:17;;;;;;;3.43;1.37;;;12.20;53.10;;;;;;5009353;28;20190;-59
2024/02/23 09:02:42;;;;;;;2.07;1.67;;;12.30;53.10;;;;;;5007008;28;20265;-57
2024/02/23 09:05:08;;;;;;;5.20;1.30;;;12.40;53.20;;;;;;5007003;28;20197;-58
2024/02/23 09:07:34;;;;;;;2.13;1.30;;;12.60;53.10;;;;;;5008376;28;20222;-57
2024/02/23 09:10:00;;;;;;;3.57;1.33;;;12.70;52.60;;;;;;5009875;28;20456;-59
2024/02/23 09:12:26;;;;;;;4.53;1.73;;;12.70;52.20;;;;;;5007965;28;20446;-59
2024/02/23 09:14:51;;;;;;;1.90;0.93;;;12.70;51.80;;;;;;5010566;28;20209;-57
2024/02/23 09:17:18;;;;;;;3.57;1.27;;;12.30;51.10;;;;;;5006012;28;20209;-57
2024/02/23 09:19:44;;;;;;;1.10;1.00;;;12.10;51.80;;;;;;5010466;28;20712;-60
2024/02/23 09:22:10;;;;;;;1.50;1.40;;;12.00;51.70;;;;;;5009253;28;20444;-57
2024/02/23 09:24:42;;;;;;;4.20;1.40;;;12.00;52.00;;;;;;5003229;28;20182;-56
2024/02/23 09:27:07;;;;;;;1.57;1.07;;;12.00;52.10;;;;;;5008988;28;20226;-56
2024/02/23 09:29:34;;;;;;;2.90;1.10;;;12.10;52.30;;;;;;5009213;28;21077;-55
2024/02/23 09:32:00;;;;;;;2.27;1.10;;;11.80;51.10;;;;;;5009154;28;20252;-59
2024/02/23 09:34:25;;;;;;;1.70;1.40;;;11.60;51.40;;;;;;5009777;28;20850;-55
2024/02/23 09:36:51;;;;;;;3.17;1.20;;;11.70;51.60;;;;;;5008756;28;20523;-60
2024/02/23 09:39:17;;;;;;;1.87;1.10;;;11.80;51.80;;;;;;5004019;28;20194;-55
2024/02/23 09:41:43;;;;;;;2.60;1.20;;;11.70;51.60;;;;;;5010428;28;20877;-57
2024/02/23 09:44:09;;;;;;;1.50;1.10;;;11.90;51.50;;;;;;5009805;28;20174;-55
2024/02/23 09:46:37;;;;;;;3.33;1.20;;;12.00;51.50;;;;;;5008659;28;20504;-57
2024/02/23 09:49:03;;;;;;;4.00;1.27;;;12.10;51.20;;;;;;5008199;28;20448;-58
2024/02/23 09:51:30;;;;;;;4.77;1.50;;;12.00;50.50;;;;;;5007479;28;20433;-58
2024/02/23 09:53:57;;;;;;;2.87;0.90;;;12.00;49.80;;;;;;5009143;28;20528;-55
2024/02/23 09:56:27;;;;;;;2.47;1.00;;;12.00;50.10;;;;;;5005449;28;20824;-60
2024/02/23 09:58:53;;;;;;;1.73;1.00;;;12.00;50.20;;;;;;5002858;28;20449;-58
2024/02/23 10:01:27;;;;;;;3.60;1.27;;;12.10;50.00;;;;;;5009488;28;20444;-56
2024/02/23 10:03:57;;;;;;;2.47;1.17;;;12.10;49.20;;;;;;5006318;28;20948;-55
2024/02/23 10:06:24;;;;;;;3.43;1.30;;;12.10;49.60;;;;;;5007055;28;20467;-57
2024/02/23 10:08:50;;;;;;;2.40;0.90;;;12.10;49.50;;;;;;5008182;28;20901;-55
2024/02/23 10:11:19;;;;;;;1.83;0.87;;;12.10;49.10;;;;;;5007300;28;20422;-57
2024/02/23 10:13:44;;;;;;;3.27;1.07;;;12.20;48.70;;;;;;5009386;28;20214;-61
2024/02/23 10:16:10;;;;;;;3.67;1.13;;;12.30;49.40;;;;;;5009616;28;20511;-56
2024/02/23 10:18:38;;;;;;;2.50;1.20;;;12.50;49.10;;;;;;5004865;28;20202;-56
2024/02/23 10:21:05;;;;;;;5.73;1.20;;;12.60;48.60;;;;;;5006864;28;20222;-59
2024/02/23 10:23:30;;;;;;;4.53;1.27;;;12.80;48.30;;;;;;5008023;28;21166;-57
2024/02/23 10:25:56;;;;;;;3.20;1.80;;;12.80;48.20;;;;;;5007918;28;20559;-57
2024/02/23 10:28:22;;;;;;;3.70;1.93;;;12.70;47.70;;;;;;5007643;28;20706;-54
2024/02/23 10:30:48;;;;;;;3.63;1.63;;;12.70;48.10;;;;;;5005276;28;20190;-54
2024/02/23 10:33:14;;;;;;;2.97;1.10;;;12.60;48.30;;;;;;5002049;28;20479;-57
2024/02/23 10:35:42;;;;;;;2.90;0.97;;;12.40;48.00;;;;;;5004892;28;20948;-59
2024/02/23 10:38:11;;;;;;;2.20;0.93;;;12.20;48.40;;;;;;5005301;28;20709;-59
2024/02/23 10:40:40;;;;;;;2.50;0.90;;;12.20;48.50;;;;;;5007006;28;20453;-57
2024/02/23 10:43:13;;;;;;;1.33;0.90;;;12.20;48.30;;;;;;5005330;28;20467;-59
2024/02/23 10:45:39;;;;;;;3.93;1.37;;;12.10;48.20;;;;;;5004381;28;20444;-60
2024/02/23 10:48:08;;;;;;;3.00;1.30;;;12.10;48.50;;;;;;5005992;28;20575;-57
2024/02/23 10:50:35;;;;;;;4.17;0.97;;;12.10;48.50;;;;;;5006825;28;20475;-57
2024/02/23 10:53:01;;;;;;;3.37;1.30;;;12.20;48.40;;;;;;5008264;28;20473;-62
2024/02/23 10:55:28;;;;;;;1.10;0.90;;;12.30;48.10;;;;;;5004553;28;20483;-60
2024/02/23 10:57:56;;;;;;;2.40;1.27;;;12.30;47.50;;;;;;5005671;28;20468;-62
2024/02/23 11:00:24;;;;;;;2.97;0.90;;;12.50;47.60;;;;;;5008097;28;20433;-62
2024/02/23 11:02:52;;;;;;;2.80;0.90;;;12.60;47.50;;;;;;5007077;28;20456;-58
2024/02/23 11:05:19;;;;;;;3.53;1.20;;;12.60;47.40;;;;;;5005216;28;21183;-59
2024/02/23 11:07:50;;;;;;;2.47;1.10;;;12.30;47.20;;;;;;5006849;28;20491;-61
2024/02/23 11:10:17;;;;;;;2.83;1.00;;;12.30;47.80;;;;;;5007062;28;20443;-57
2024/02/23 11:12:43;;;;;;;8.77;1.70;;;12.40;47.30;;;;;;5005917;28;20421;-59
2024/02/23 11:15:10;;;;;;;15.63;7.70;;;12.40;47.80;;;;;;5007748;28;20500;-62
2024/02/23 11:17:39;;;;;;;13.50;6.40;;;12.60;47.00;;;;;;5001196;28;20449;-59
2024/02/23 11:20:06;;;;;;;13.80;7.60;;;12.60;46.80;;;;;;5007829;28;20986;-58
2024/02/23 11:22:36;;;;;;;3.77;2.37;;;12.60;47.30;;;;;;5008700;28;20413;-58
2024/02/23 11:25:08;;;;;;;4.13;2.00;;;12.70;46.50;;;;;;5004986;28;20433;-60
2024/02/23 11:27:35;;;;;;;4.27;1.40;;;12.70;46.90;;;;;;5007484;28;20484;-60
2024/02/23 11:30:04;;;;;;;2.67;1.10;;;12.80;46.00;;;;;;5007575;28;20465;-60
2024/02/23 11:32:46;;;;;;;6.80;1.33;;;12.90;46.20;;;;;;5005760;28;20468;-58
2024/02/23 11:35:14;;;;;;;3.30;1.70;;;13.10;45.80;;;;;;5002035;28;20455;-60
2024/02/23 11:37:58;;;;;;;6.43;1.27;;;13.30;45.40;;;;;;5004840;28;20444;-60
2024/02/23 11:40:29;;;;;;;4.30;1.53;;;13.20;45.60;;;;;;5007043;28;20423;-60
2024/02/23 11:42:55;;;;;;;4.30;1.10;;;12.90;45.60;;;;;;5006039;28;20465;-60
2024/02/23 11:45:21;;;;;;;4.43;1.20;;;13.00;45.30;;;;;;5006385;28;20450;-57
2024/02/23 11:47:47;;;;;;;2.27;1.10;;;13.10;45.00;;;;;;5006717;28;20488;-59
2024/02/23 11:50:15;;;;;;;3.50;1.17;;;13.10;45.30;;;;;;5008275;28;20433;-58
2024/02/23 11:52:41;;;;;;;3.37;1.33;;;13.00;45.10;;;;;;5004379;28;20615;-58
2024/02/23 11:55:08;;;;;;;2.00;1.07;;;13.00;45.70;;;;;;5007475;28;20421;-57
2024/02/23 11:57:34;;;;;;;2.93;1.40;;;12.90;45.20;;;;;;5003404;28;20217;-60
2024/02/23 12:00:03;;;;;;;2.70;1.27;;;13.00;45.90;;;;;;5005922;28;20861;-59
2024/02/23 12:02:28;;;;;;;2.20;1.40;;;13.00;45.30;;;;;;5006715;28;20539;-58
2024/02/23 12:04:54;;;;;;;3.17;1.20;;;13.30;45.50;;;;;;5007333;28;20520;-60
2024/02/23 12:07:21;;;;;;;3.40;1.20;;;13.20;45.40;;;;;;5004433;28;20225;-55
2024/02/23 12:09:47;;;;;;;6.03;1.10;;;13.10;46.20;;;;;;5009204;28;20196;-57
2024/02/23 12:12:13;;;;;;;3.00;1.40;;;12.70;46.40;;;;;;5005430;28;20465;-57
2024/02/23 12:14:40;;;;;;;1.17;0.93;;;12.50;47.30;;;;;;5008971;28;20459;-56
2024/02/23 12:17:08;;;;;;;1.87;1.37;;;12.50;46.90;;;;;;5001327;28;20846;-55
2024/02/23 12:19:40;;;;;;;2.30;0.93;;;12.50;47.80;;;;;;5007934;28;20484;-59
2024/02/23 12:22:06;;;;;;;2.30;1.13;;;12.40;47.90;;;;;;5008083;28;20413;-59
2024/02/23 12:24:32;;;;;;;2.13;1.37;;;12.60;47.10;;;;;;5003755;28;20837;-57
2024/02/23 12:26:57;;;;;;;1.60;1.00;;;12.60;46.30;;;;;;5005441;28;20856;-59
2024/02/23 12:29:23;;;;;;;3.93;1.20;;;12.60;46.00;;;;;;5006952;28;20247;-58
2024/02/23 12:31:49;;;;;;;3.70;1.33;;;12.50;46.70;;;;;;5002174;28;20182;-59
2024/02/23 12:34:15;;;;;;;2.63;1.10;;;12.70;46.50;;;;;;5007430;28;20436;-59
2024/02/23 12:36:41;;;;;;;3.67;1.23;;;12.80;46.20;;;;;;5007537;28;20574;-55
2024/02/23 12:39:06;;;;;;;3.40;1.50;;;12.90;46.20;;;;;;5006310;28;20439;-59
2024/02/23 12:41:32;;;;;;;2.50;0.90;;;12.90;46.50;;;;;;5008200;28;20317;-59